Time;durP1;ratioP1;P1;durP2;ratioP2;P2;SDS_P1;SDS_P2;PMS_P1;PMS_P2;Temp;Humidity;BMP_temperature;BMP_pressure;BME280_temperature;BME280_humidity;BME280_pressure;Samples;Min_cycle;Max_cycle;Signal;HPM_P1;HPM_P2
2022/12/04 00:01:40;;;;;;;17.23;7.65;;;;;;;;;;10454074;28;20050;-72
2022/12/04 00:06:40;;;;;;;13.15;6.85;;;;;;;;;;10391587;28;20515;-75
2022/12/04 00:11:40;;;;;;;14.98;7.10;;;;;;;;;;10393584;28;20082;-76
2022/12/04 00:16:41;;;;;;;13.27;6.18;;;;;;;;;;10397104;28;20057;-81
2022/12/04 00:21:41;;;;;;;13.00;7.00;;;;;;;;;;10369083;28;20531;-79
2022/12/04 00:26:41;;;;;;;10.77;6.13;;;;;;;;;;10386162;28;20033;-79
2022/12/04 00:31:41;;;;;;;11.80;6.13;;;;;;;;;;10386591;28;20087;-81
2022/12/04 00:36:42;;;;;;;15.15;6.10;;;;;;;;;;10403538;28;20120;-80
2022/12/04 00:41:42;;;;;;;11.43;6.07;;;;;;;;;;10356855;28;20022;-84
2022/12/04 00:46:42;;;;;;;16.98;6.35;;;;;;;;;;10367536;28;20801;-78
2022/12/04 00:51:43;;;;;;;9.77;4.80;;;;;;;;;;10386039;28;20457;-82
2022/12/04 00:56:44;;;;;;;9.90;5.50;;;;;;;;;;10369487;28;20029;-74
2022/12/04 01:01:44;;;;;;;11.45;5.55;;;;;;;;;;10385621;28;20140;-81
2022/12/04 01:06:45;;;;;;;12.30;5.38;;;;;;;;;;10384520;28;20054;-80
2022/12/04 01:11:45;;;;;;;12.13;5.13;;;;;;;;;;10384531;28;20037;-75
2022/12/04 01:16:46;;;;;;;6.38;3.75;;;;;;;;;;10384489;28;20048;-75
2022/12/04 01:21:46;;;;;;;8.80;4.43;;;;;;;;;;10376971;28;20018;-82
2022/12/04 01:26:46;;;;;;;9.70;4.40;;;;;;;;;;10399625;28;20478;-80
2022/12/04 01:31:47;;;;;;;8.43;4.37;;;;;;;;;;10367583;28;20484;-76
2022/12/04 01:36:47;;;;;;;7.35;4.32;;;;;;;;;;10386660;28;20375;-78
2022/12/04 01:41:47;;;;;;;8.77;4.27;;;;;;;;;;10384283;28;20380;-80
2022/12/04 01:46:52;;;;;;;7.40;4.53;;;;;;;;;;10395308;28;20037;-76
2022/12/04 01:52:13;;;;;;;7.97;4.35;;;;;;;;;;10375428;28;20079;-75
2022/12/04 01:57:17;;;;;;;9.18;4.82;;;;;;;;;;10381689;28;20044;-75
2022/12/04 02:02:22;;;;;;;6.10;3.67;;;;;;;;;;10400594;28;20021;-76
2022/12/04 02:07:22;;;;;;;6.25;3.72;;;;;;;;;;10357811;28;20096;-78
2022/12/04 02:12:31;;;;;;;9.02;3.88;;;;;;;;;;10355447;28;20021;-76
2022/12/04 02:17:47;;;;;;;7.78;3.78;;;;;;;;;;10416212;28;20044;-73
2022/12/04 02:23:02;;;;;;;6.50;3.53;;;;;;;;;;10417002;28;20354;-80
2022/12/04 02:28:14;;;;;;;4.82;2.83;;;;;;;;;;10384152;28;20037;-80
2022/12/04 02:33:19;;;;;;;5.75;3.13;;;;;;;;;;10382154;28;20136;-80
2022/12/04 02:38:24;;;;;;;4.38;2.75;;;;;;;;;;10401215;28;20021;-76
2022/12/04 02:43:25;;;;;;;7.65;2.33;;;;;;;;;;10390797;28;20025;-84
2022/12/04 02:48:29;;;;;;;4.57;2.88;;;;;;;;;;10408528;28;20659;-76
2022/12/04 02:53:31;;;;;;;4.88;2.60;;;;;;;;;;10389905;28;20018;-76
2022/12/04 02:58:40;;;;;;;5.65;2.80;;;;;;;;;;10389319;28;20038;-75
2022/12/04 03:03:41;;;;;;;3.70;2.42;;;;;;;;;;10390414;28;20025;-81
2022/12/04 03:08:44;;;;;;;4.77;2.37;;;;;;;;;;10389661;28;20057;-81
2022/12/04 03:13:47;;;;;;;3.15;2.20;;;;;;;;;;10394060;28;20288;-81
2022/12/04 03:19:08;;;;;;;2.30;1.40;;;;;;;;;;10389671;28;20041;-76
2022/12/04 03:24:18;;;;;;;2.15;1.80;;;;;;;;;;10405860;28;20048;-75
2022/12/04 03:29:23;;;;;;;2.42;1.70;;;;;;;;;;10388236;28;20025;-74
2022/12/04 03:34:50;;;;;;;3.60;2.05;;;;;;;;;;10388414;28;20082;-74
2022/12/04 03:39:50;;;;;;;3.30;1.55;;;;;;;;;;10381741;28;20033;-76
2022/12/04 03:45:13;;;;;;;3.22;1.98;;;;;;;;;;10386410;28;20029;-76
2022/12/04 03:50:22;;;;;;;3.75;2.08;;;;;;;;;;10350198;28;20095;-85
2022/12/04 03:55:31;;;;;;;3.70;2.22;;;;;;;;;;10387753;28;20029;-74
2022/12/04 04:00:32;;;;;;;4.28;1.38;;;;;;;;;;10390011;28;20231;-76
2022/12/04 04:05:33;;;;;;;2.80;2.00;;;;;;;;;;10406732;28;20065;-78
2022/12/04 04:10:34;;;;;;;3.03;1.95;;;;;;;;;;10387398;28;20028;-81
2022/12/04 04:26:17;;;;;;;3.85;2.30;;;;;;;;;;10403593;28;20026;-74
2022/12/04 04:31:31;;;;;;;3.22;2.22;;;;;;;;;;10410647;28;20029;-76
2022/12/04 04:36:37;;;;;;;4.97;2.80;;;;;;;;;;10404206;28;20120;-76
2022/12/04 04:41:48;;;;;;;3.15;1.90;;;;;;;;;;10406297;28;20045;-74
2022/12/04 04:46:52;;;;;;;4.20;2.75;;;;;;;;;;10403231;28;20041;-76
2022/12/04 04:51:52;;;;;;;4.80;2.85;;;;;;;;;;10385282;28;20061;-80
2022/12/04 04:56:53;;;;;;;4.53;2.15;;;;;;;;;;10352447;28;20116;-81
2022/12/04 05:01:55;;;;;;;4.90;2.88;;;;;;;;;;10369813;28;20081;-78
2022/12/04 05:06:55;;;;;;;5.80;2.95;;;;;;;;;;10390821;28;20462;-75
2022/12/04 05:11:56;;;;;;;6.97;4.15;;;;;;;;;;10402652;28;20025;-81
2022/12/04 05:16:56;;;;;;;5.70;3.20;;;;;;;;;;10362374;28;20488;-78
2022/12/04 05:21:56;;;;;;;5.80;3.10;;;;;;;;;;10369635;28;20021;-76
2022/12/04 05:26:56;;;;;;;6.05;3.45;;;;;;;;;;10375249;28;20021;-80
2022/12/04 05:31:57;;;;;;;4.65;3.13;;;;;;;;;;10384180;28;20148;-78
2022/12/04 05:36:57;;;;;;;6.40;3.30;;;;;;;;;;10369925;28;20068;-80
2022/12/04 05:41:57;;;;;;;5.18;3.35;;;;;;;;;;10378460;28;20040;-76
2022/12/04 05:46:57;;;;;;;7.03;4.10;;;;;;;;;;10364700;28;20041;-82
2022/12/04 05:52:03;;;;;;;6.15;3.80;;;;;;;;;;10375388;28;20029;-76
2022/12/04 05:57:04;;;;;;;8.25;4.10;;;;;;;;;;10395005;28;20065;-81
2022/12/04 06:02:04;;;;;;;10.70;4.70;;;;;;;;;;10367768;28;20120;-74
2022/12/04 06:07:04;;;;;;;7.65;3.78;;;;;;;;;;10357226;28;20303;-82
2022/12/04 06:12:05;;;;;;;8.83;3.67;;;;;;;;;;10383060;28;20513;-77
2022/12/04 06:17:05;;;;;;;8.10;4.53;;;;;;;;;;10389718;28;20085;-76
2022/12/04 06:22:05;;;;;;;8.52;4.18;;;;;;;;;;10376833;28;20035;-79
2022/12/04 06:27:06;;;;;;;6.07;3.90;;;;;;;;;;10379252;28;20033;-81
2022/12/04 06:32:09;;;;;;;7.83;4.53;;;;;;;;;;10396668;28;20033;-74
2022/12/04 06:37:09;;;;;;;7.65;4.20;;;;;;;;;;10419692;28;20033;-73
2022/12/04 06:42:09;;;;;;;6.80;4.03;;;;;;;;;;10383023;28;20355;-77
2022/12/04 06:47:10;;;;;;;9.88;4.63;;;;;;;;;;10379962;28;20483;-75
2022/12/04 06:52:10;;;;;;;6.70;4.00;;;;;;;;;;10407774;28;20041;-81
2022/12/04 06:57:10;;;;;;;7.45;4.30;;;;;;;;;;10389775;28;20095;-80
2022/12/04 07:02:10;;;;;;;9.27;5.00;;;;;;;;;;10369121;28;20030;-75
2022/12/04 07:07:11;;;;;;;9.55;4.53;;;;;;;;;;10369173;28;20133;-77
2022/12/04 07:12:11;;;;;;;8.98;4.43;;;;;;;;;;10372941;28;20415;-75
2022/12/04 07:17:11;;;;;;;10.13;4.82;;;;;;;;;;10388720;28;20036;-77
2022/12/04 07:22:13;;;;;;;9.85;4.63;;;;;;;;;;10386261;28;20030;-78
2022/12/04 07:27:13;;;;;;;8.95;4.47;;;;;;;;;;10365735;28;20033;-78
2022/12/04 07:32:14;;;;;;;8.18;4.25;;;;;;;;;;10405306;28;20395;-77
2022/12/04 07:37:14;;;;;;;11.40;5.25;;;;;;;;;;10381505;28;20111;-76
2022/12/04 07:42:14;;;;;;;7.88;4.55;;;;;;;;;;10395701;28;20060;-75
2022/12/04 07:47:14;;;;;;;8.27;3.60;;;;;;;;;;10375463;28;20033;-75
2022/12/04 07:52:15;;;;;;;8.60;4.43;;;;;;;;;;10395040;28;20037;-79
2022/12/04 07:57:15;;;;;;;8.32;4.38;;;;;;;;;;10406631;28;20029;-77
2022/12/04 08:02:16;;;;;;;8.55;4.38;;;;;;;;;;10383193;28;20030;-81
2022/12/04 08:07:16;;;;;;;9.80;4.20;;;;;;;;;;10385750;28;20053;-81
2022/12/04 08:12:17;;;;;;;3.97;2.58;;;;;;;;;;10387275;28;20277;-75
2022/12/04 08:17:17;;;;;;;7.22;3.13;;;;;;;;;;10377761;28;20038;-77
2022/12/04 08:22:17;;;;;;;7.25;2.92;;;;;;;;;;10386050;28;20029;-74
2022/12/04 08:27:17;;;;;;;9.95;2.80;;;;;;;;;;10386083;28;20033;-79
2022/12/04 08:32:18;;;;;;;5.50;2.67;;;;;;;;;;10386694;28;20067;-83
2022/12/04 08:37:18;;;;;;;8.53;3.00;;;;;;;;;;10388295;28;20017;-76
2022/12/04 08:42:18;;;;;;;5.13;2.90;;;;;;;;;;10385689;28;20022;-81
2022/12/04 08:47:18;;;;;;;4.05;2.65;;;;;;;;;;10389480;28;20025;-76
2022/12/04 08:52:19;;;;;;;5.20;2.93;;;;;;;;;;10391993;28;20506;-72
2022/12/04 08:57:19;;;;;;;5.22;2.45;;;;;;;;;;10407159;28;20025;-78
2022/12/04 09:02:19;;;;;;;3.63;1.98;;;;;;;;;;10389479;28;20017;-72
2022/12/04 09:07:19;;;;;;;5.57;2.35;;;;;;;;;;10385688;28;20121;-75
2022/12/04 09:12:20;;;;;;;4.50;2.08;;;;;;;;;;10391547;28;20045;-79
2022/12/04 09:17:21;;;;;;;3.58;2.00;;;;;;;;;;10392799;28;20091;-79
2022/12/04 09:22:21;;;;;;;6.97;2.17;;;;;;;;;;10378276;28;20562;-77
2022/12/04 09:27:21;;;;;;;5.23;2.23;;;;;;;;;;10384358;28;20037;-78
2022/12/04 09:32:23;;;;;;;4.30;2.33;;;;;;;;;;10362892;28;20033;-74
2022/12/04 09:37:23;;;;;;;4.82;2.55;;;;;;;;;;10374392;28;20037;-80
2022/12/04 09:42:42;;;;;;;5.17;2.60;;;;;;;;;;10357985;28;20034;-76
2022/12/04 09:47:44;;;;;;;5.28;2.85;;;;;;;;;;10350257;28;20033;-78
2022/12/04 09:52:47;;;;;;;7.18;2.95;;;;;;;;;;10369219;28;20038;-75
2022/12/04 09:57:48;;;;;;;5.57;2.55;;;;;;;;;;10372190;28;20072;-75
2022/12/04 10:03:15;;;;;;;5.95;3.13;;;;;;;;;;10370365;28;20038;-75
2022/12/04 10:08:30;;;;;;;3.97;2.65;;;;;;;;;;10358607;28;20065;-79
2022/12/04 10:13:34;;;;;;;8.85;3.88;;;;;;;;;;10365238;28;20100;-78
2022/12/04 10:18:41;;;;;;;6.82;3.42;;;;;;;;;;10364657;28;20087;-74
2022/12/04 10:23:54;;;;;;;7.13;3.38;;;;;;;;;;10353031;28;20539;-80
2022/12/04 10:28:59;;;;;;;5.55;2.95;;;;;;;;;;10369460;28;20041;-74
2022/12/04 10:34:15;;;;;;;6.13;3.53;;;;;;;;;;10375256;28;20029;-74
2022/12/04 10:39:16;;;;;;;6.95;2.90;;;;;;;;;;10386232;28;20030;-75
2022/12/04 10:44:18;;;;;;;4.55;2.55;;;;;;;;;;10376180;28;20065;-73
2022/12/04 10:49:21;;;;;;;6.57;3.97;;;;;;;;;;10376713;28;20099;-73
2022/12/04 10:54:35;;;;;;;6.75;3.75;;;;;;;;;;10375320;28;20487;-74
2022/12/04 10:59:47;;;;;;;9.18;4.60;;;;;;;;;;10376526;28;20087;-75
2022/12/04 11:04:53;;;;;;;7.15;3.35;;;;;;;;;;10384712;28;20037;-74
2022/12/04 11:09:55;;;;;;;6.22;3.63;;;;;;;;;;10381544;28;20053;-78
2022/12/04 11:15:05;;;;;;;4.95;2.63;;;;;;;;;;10380189;28;20033;-74
2022/12/04 11:20:12;;;;;;;8.23;3.90;;;;;;;;;;10383063;28;20029;-77
2022/12/04 11:25:15;;;;;;;7.83;3.57;;;;;;;;;;10398466;28;20032;-81
2022/12/04 11:30:19;;;;;;;8.90;4.95;;;;;;;;;;10398412;28;20573;-77
2022/12/04 11:35:21;;;;;;;7.00;3.50;;;;;;;;;;10391476;28;20472;-75
2022/12/04 11:40:22;;;;;;;6.15;3.72;;;;;;;;;;10386949;28;20026;-75
2022/12/04 11:45:22;;;;;;;10.18;4.50;;;;;;;;;;10379388;28;20601;-79
2022/12/04 11:50:26;;;;;;;10.63;5.97;;;;;;;;;;10383982;28;20404;-79
2022/12/04 11:55:41;;;;;;;12.93;7.22;;;;;;;;;;10389126;28;20021;-77
2022/12/04 12:00:49;;;;;;;8.23;4.50;;;;;;;;;;10376950;28;20021;-79
2022/12/04 12:06:09;;;;;;;10.60;5.85;;;;;;;;;;10375083;28;20040;-78
2022/12/04 12:11:09;;;;;;;7.00;4.40;;;;;;;;;;10373135;28;20032;-79
2022/12/04 12:16:30;;;;;;;9.20;5.05;;;;;;;;;;10375268;28;20052;-74
2022/12/04 12:21:53;;;;;;;9.30;4.95;;;;;;;;;;10386398;28;20509;-75
2022/12/04 12:27:22;;;;;;;8.77;4.65;;;;;;;;;;10359013;28;20356;-78
2022/12/04 12:32:23;;;;;;;;;;;;;;;;;;10377582;28;20025;-79
2022/12/04 12:37:42;;;;;;;8.85;5.03;;;;;;;;;;10374820;28;19924;-73
2022/12/04 12:42:52;;;;;;;10.30;5.35;;;;;;;;;;10391788;28;20140;-78
2022/12/04 12:47:55;;;;;;;10.63;5.07;;;;;;;;;;10383042;28;20322;-81
2022/12/04 12:53:00;;;;;;;10.95;5.63;;;;;;;;;;10378993;28;20513;-74
2022/12/04 12:58:16;;;;;;;11.43;6.63;;;;;;;;;;10397385;28;20030;-80
2022/12/04 13:03:23;;;;;;;10.95;5.90;;;;;;;;;;10378567;28;20021;-80
2022/12/04 13:08:33;;;;;;;10.32;5.82;;;;;;;;;;10394374;28;20052;-76
2022/12/04 13:13:38;;;;;;;15.10;6.25;;;;;;;;;;10373246;28;20033;-77
2022/12/04 13:19:14;;;;;;;8.95;5.03;;;;;;;;;;10372845;28;20030;-76
2022/12/04 13:24:33;;;;;;;12.15;5.65;;;;;;;;;;10326924;28;20083;-76
2022/12/04 13:29:42;;;;;;;12.50;6.00;;;;;;;;;;10390162;28;20017;-75
2022/12/04 13:34:51;;;;;;;11.20;5.57;;;;;;;;;;10377899;28;20029;-76
2022/12/04 13:40:11;;;;;;;10.95;6.18;;;;;;;;;;10379050;28;20021;-76
2022/12/04 13:45:24;;;;;;;10.35;5.43;;;;;;;;;;10383755;28;20419;-78
2022/12/04 13:50:27;;;;;;;11.30;5.18;;;;;;;;;;10381464;28;20112;-76
2022/12/04 13:55:33;;;;;;;12.27;5.80;;;;;;;;;;10404599;28;20472;-77
2022/12/04 14:00:34;;;;;;;11.50;5.07;;;;;;;;;;10384278;28;20029;-79
2022/12/04 14:05:40;;;;;;;8.80;5.53;;;;;;;;;;10378861;28;20053;-72
2022/12/04 14:10:41;;;;;;;9.60;5.55;;;;;;;;;;10373641;28;20057;-78
2022/12/04 14:15:42;;;;;;;10.35;5.60;;;;;;;;;;10376450;28;20025;-75
2022/12/04 14:20:43;;;;;;;9.35;4.82;;;;;;;;;;10375335;28;20431;-79
2022/12/04 14:25:43;;;;;;;9.77;4.47;;;;;;;;;;10372994;28;20075;-75
2022/12/04 14:30:52;;;;;;;10.45;4.55;;;;;;;;;;10374017;28;20017;-73
2022/12/04 14:36:04;;;;;;;10.23;4.85;;;;;;;;;;10376189;28;20023;-74
2022/12/04 14:41:04;;;;;;;11.10;5.40;;;;;;;;;;10398076;28;20021;-77
2022/12/04 14:46:07;;;;;;;14.57;5.70;;;;;;;;;;10397971;28;20014;-75
2022/12/04 14:51:26;;;;;;;8.88;5.25;;;;;;;;;;10385194;28;20132;-76
2022/12/04 14:56:26;;;;;;;15.25;5.15;;;;;;;;;;10391334;28;20018;-73
2022/12/04 15:01:32;;;;;;;12.52;6.20;;;;;;;;;;10383566;28;20055;-79
2022/12/04 15:06:32;;;;;;;9.90;5.85;;;;;;;;;;10377703;28;20152;-74
2022/12/04 15:17:00;;;;;;;9.00;5.03;;;;;;;;;;10399812;28;20110;-77
2022/12/04 15:22:02;;;;;;;10.63;5.45;;;;;;;;;;10378962;28;20021;-78
2022/12/04 15:27:03;;;;;;;11.25;5.22;;;;;;;;;;10376220;28;20591;-77
2022/12/04 15:32:05;;;;;;;11.23;5.15;;;;;;;;;;10381238;28;20025;-76
2022/12/04 15:37:12;;;;;;;11.20;5.93;;;;;;;;;;10366005;22;20050;-77
2022/12/04 15:42:15;;;;;;;10.65;5.32;;;;;;;;;;10332997;28;20141;-77
2022/12/04 15:47:18;;;;;;;12.20;7.63;;;;;;;;;;10340865;28;20484;-74
2022/12/04 15:52:20;;;;;;;14.45;5.50;;;;;;;;;;10347356;28;20029;-73
2022/12/04 15:57:26;;;;;;;15.30;7.28;;;;;;;;;;10346406;28;20026;-72
2022/12/04 16:02:28;;;;;;;11.85;6.43;;;;;;;;;;10346521;28;20116;-74
2022/12/04 16:07:39;;;;;;;10.88;6.15;;;;;;;;;;10363476;28;20033;-74
2022/12/04 16:12:39;;;;;;;15.23;7.10;;;;;;;;;;10351437;28;20387;-75
2022/12/04 16:17:41;;;;;;;10.93;5.50;;;;;;;;;;10356710;28;20052;-77
2022/12/04 16:22:41;;;;;;;14.02;6.72;;;;;;;;;;10333503;28;20042;-76
2022/12/04 16:27:41;;;;;;;16.50;8.73;;;;;;;;;;10373889;22;20103;-72
2022/12/04 16:32:41;;;;;;;17.67;9.32;;;;;;;;;;10334082;28;20472;-72
2022/12/04 16:37:42;;;;;;;13.68;7.55;;;;;;;;;;10333793;28;20085;-77
2022/12/04 16:42:42;;;;;;;12.77;6.15;;;;;;;;;;10332853;28;20484;-78
2022/12/04 16:47:44;;;;;;;14.85;6.32;;;;;;;;;;10330268;28;20108;-77
2022/12/04 16:52:44;;;;;;;10.95;6.32;;;;;;;;;;10317740;28;20534;-72
2022/12/04 16:57:45;;;;;;;15.30;5.87;;;;;;;;;;10343515;28;20029;-77
2022/12/04 17:02:45;;;;;;;10.45;5.75;;;;;;;;;;10345476;28;20116;-78
2022/12/04 17:07:46;;;;;;;11.82;5.65;;;;;;;;;;10327203;28;20754;-75
2022/12/04 17:12:46;;;;;;;17.27;7.28;;;;;;;;;;10329850;28;20615;-77
2022/12/04 17:17:47;;;;;;;10.35;5.22;;;;;;;;;;10342479;28;20450;-75
2022/12/04 17:22:47;;;;;;;12.25;6.00;;;;;;;;;;10329464;28;20368;-78
2022/12/04 17:27:47;;;;;;;10.30;5.33;;;;;;;;;;10347838;28;20050;-79
2022/12/04 17:32:48;;;;;;;12.15;5.93;;;;;;;;;;10327291;28;20045;-77
2022/12/04 17:37:48;;;;;;;12.00;5.10;;;;;;;;;;10329700;28;20029;-77
2022/12/04 17:42:49;;;;;;;8.13;4.65;;;;;;;;;;10347237;28;20562;-77
2022/12/04 17:47:49;;;;;;;13.27;6.28;;;;;;;;;;10330486;28;20026;-77
2022/12/04 17:52:50;;;;;;;16.02;5.50;;;;;;;;;;10326334;28;20030;-76
2022/12/04 17:57:50;;;;;;;13.95;6.53;;;;;;;;;;10347226;28;20034;-76
2022/12/04 18:02:50;;;;;;;15.97;7.20;;;;;;;;;;10331534;28;20099;-73
2022/12/04 18:07:51;;;;;;;10.93;4.72;;;;;;;;;;10310228;28;20095;-76
2022/12/04 18:12:51;;;;;;;11.82;3.95;;;;;;;;;;10344562;28;20037;-77
2022/12/04 18:17:51;;;;;;;9.48;4.38;;;;;;;;;;10355933;28;20041;-71
2022/12/04 18:22:51;;;;;;;11.20;5.32;;;;;;;;;;10334634;28;20583;-73
2022/12/04 18:27:52;;;;;;;10.27;5.10;;;;;;;;;;10328979;28;20053;-78
2022/12/04 18:32:57;;;;;;;10.45;5.68;;;;;;;;;;10354528;28;20038;-77
2022/12/04 18:37:57;;;;;;;9.85;5.40;;;;;;;;;;10324615;28;20068;-74
2022/12/04 18:42:57;;;;;;;9.05;4.93;;;;;;;;;;10328450;28;20025;-73
2022/12/04 18:47:59;;;;;;;10.60;5.17;;;;;;;;;;10329895;28;20095;-73
2022/12/04 18:53:00;;;;;;;9.80;4.72;;;;;;;;;;10348157;28;20038;-72
2022/12/04 18:58:00;;;;;;;9.05;4.55;;;;;;;;;;10331352;28;20484;-73
2022/12/04 19:03:03;;;;;;;9.87;3.43;;;;;;;;;;10327740;28;20030;-73
2022/12/04 19:08:03;;;;;;;9.57;4.00;;;;;;;;;;10315236;28;20029;-73
2022/12/04 19:13:03;;;;;;;9.77;5.00;;;;;;;;;;10350181;28;20026;-73
2022/12/04 19:18:04;;;;;;;12.63;4.00;;;;;;;;;;10329941;28;20030;-73
2022/12/04 19:23:04;;;;;;;9.50;5.33;;;;;;;;;;10336015;28;20030;-72
2022/12/04 19:28:05;;;;;;;12.85;5.75;;;;;;;;;;10347311;28;20042;-76
2022/12/04 19:33:05;;;;;;;14.95;6.00;;;;;;;;;;10351423;28;20030;-73
2022/12/04 19:38:05;;;;;;;9.77;4.25;;;;;;;;;;10347912;28;20520;-75
2022/12/04 19:43:05;;;;;;;9.55;5.25;;;;;;;;;;10353769;28;20093;-78
2022/12/04 19:48:07;;;;;;;7.50;4.25;;;;;;;;;;10331136;28;20407;-78
2022/12/04 19:53:07;;;;;;;11.32;4.78;;;;;;;;;;10357307;28;20037;-80
2022/12/04 19:58:07;;;;;;;17.70;5.63;;;;;;;;;;10314842;28;20018;-80
2022/12/04 20:03:08;;;;;;;9.52;3.67;;;;;;;;;;10350322;28;20022;-78
2022/12/04 20:08:08;;;;;;;9.13;4.17;;;;;;;;;;10346147;28;20480;-81
2022/12/04 20:13:08;;;;;;;8.68;4.18;;;;;;;;;;10349391;28;20018;-73
2022/12/04 20:18:09;;;;;;;9.10;4.30;;;;;;;;;;10351978;28;20026;-74
2022/12/04 20:23:09;;;;;;;10.68;4.70;;;;;;;;;;10351262;28;20097;-76
2022/12/04 20:28:09;;;;;;;7.72;4.30;;;;;;;;;;10347543;28;20072;-74
2022/12/04 20:33:10;;;;;;;12.23;4.90;;;;;;;;;;10338357;28;20041;-74
2022/12/04 20:38:10;;;;;;;11.23;5.27;;;;;;;;;;10339591;28;20030;-78
2022/12/04 20:43:11;;;;;;;10.93;5.55;;;;;;;;;;10335968;28;20500;-78
2022/12/04 20:48:12;;;;;;;9.00;5.25;;;;;;;;;;10346688;28;20054;-79
2022/12/04 20:53:13;;;;;;;9.85;5.05;;;;;;;;;;10347877;28;20088;-78
2022/12/04 20:58:13;;;;;;;9.63;4.53;;;;;;;;;;10331855;28;20087;-74
2022/12/04 21:03:13;;;;;;;9.95;4.47;;;;;;;;;;10357865;28;20032;-79
2022/12/04 21:08:51;;;;;;;8.45;4.65;;;;;;;;;;10355772;28;20029;-76
2022/12/04 21:18:55;;;;;;;12.48;4.78;;;;;;;;;;10358440;28;20034;-76
2022/12/04 21:23:55;;;;;;;8.77;5.03;;;;;;;;;;10355998;28;20083;-75
2022/12/04 21:28:57;;;;;;;9.93;5.13;;;;;;;;;;10339278;28;20526;-74
2022/12/04 21:33:57;;;;;;;13.63;5.93;;;;;;;;;;10334329;28;20214;-74
2022/12/04 21:38:58;;;;;;;7.07;4.03;;;;;;;;;;10327702;28;20049;-74
2022/12/04 21:43:58;;;;;;;6.80;4.05;;;;;;;;;;10344049;28;20083;-77
2022/12/04 21:48:59;;;;;;;12.23;5.13;;;;;;;;;;10344755;28;20092;-74
2022/12/04 21:53:59;;;;;;;8.48;4.47;;;;;;;;;;10326848;28;20034;-79
2022/12/04 21:59:00;;;;;;;6.68;3.47;;;;;;;;;;10327724;28;20029;-79
2022/12/04 22:04:00;;;;;;;9.57;5.07;;;;;;;;;;10380312;22;20049;-74
2022/12/04 22:09:01;;;;;;;11.10;3.45;;;;;;;;;;10393531;28;20030;-78
2022/12/04 22:14:01;;;;;;;10.98;4.55;;;;;;;;;;10392179;28;20411;-75
2022/12/04 22:19:03;;;;;;;8.83;3.83;;;;;;;;;;10377869;28;20032;-74
2022/12/04 22:24:03;;;;;;;9.40;3.50;;;;;;;;;;10401830;28;20667;-75
2022/12/04 22:29:04;;;;;;;8.05;3.63;;;;;;;;;;10394487;28;20036;-73
2022/12/04 22:34:04;;;;;;;10.25;4.30;;;;;;;;;;10384551;28;20042;-74
2022/12/04 22:39:05;;;;;;;7.97;3.70;;;;;;;;;;10386926;28;20406;-74
2022/12/04 22:44:05;;;;;;;5.57;3.53;;;;;;;;;;10398409;28;20613;-76
2022/12/04 22:49:05;;;;;;;7.50;4.25;;;;;;;;;;10413460;28;20108;-78
2022/12/04 22:54:07;;;;;;;8.20;4.45;;;;;;;;;;10398653;28;20458;-78
2022/12/04 22:59:07;;;;;;;8.48;4.25;;;;;;;;;;10394334;28;20025;-76
2022/12/04 23:04:08;;;;;;;11.63;5.32;;;;;;;;;;10405577;28;20068;-73
2022/12/04 23:09:11;;;;;;;9.20;5.03;;;;;;;;;;10405059;28;20448;-74
2022/12/04 23:14:13;;;;;;;7.55;4.60;;;;;;;;;;10404619;28;20048;-79
2022/12/04 23:19:16;;;;;;;7.78;4.45;;;;;;;;;;10404215;28;20101;-78
2022/12/04 23:24:17;;;;;;;9.10;4.65;;;;;;;;;;10404170;28;20128;-73
2022/12/04 23:29:17;;;;;;;9.65;4.60;;;;;;;;;;10404552;28;20418;-74
2022/12/04 23:34:17;;;;;;;11.77;4.80;;;;;;;;;;10404601;28;20648;-74
2022/12/04 23:39:17;;;;;;;11.70;5.30;;;;;;;;;;10402530;28;20483;-78
2022/12/04 23:44:18;;;;;;;10.73;4.78;;;;;;;;;;10402388;28;20081;-75
2022/12/04 23:49:18;;;;;;;11.07;6.60;;;;;;;;;;10403999;28;20403;-74
2022/12/04 23:54:18;;;;;;;10.98;4.72;;;;;;;;;;10403545;28;20599;-76
2022/12/04 23:59:20;;;;;;;12.63;5.32;;;;;;;;;;10403152;28;21377;-76
